Terminal Aerodrome Forecast
Issued by NWS Albany, NY

Home | Current Version | Previous Version | Text Only | Print | Product List | Glossary On
Versions: 1 2 3 4 5 6 7 8 9 10 11 12
000
FTUS41 KALY 212329
TAFPOU
TAF
KPOU 212329Z 2200/2224 20006KT P6SM BKN150 BKN200
     FM220500 VRB03KT 5SM -SHRA BKN025 OVC050
     FM221500 VRB04KT P6SM VCSH SCT015 BKN035=

USA.gov is the U.S. government's official web portal to all federal, state and local government web resources and services.